createdAt,value
2023-07-02T00:00:42.926Z,84
2023-07-02T00:02:43.134Z,83
2023-07-02T00:04:44.926Z,83
2023-07-02T00:06:42.906Z,84
2023-07-02T00:08:46.039Z,83
2023-07-02T00:10:41.689Z,83
2023-07-02T00:12:42.888Z,83
2023-07-02T00:14:45.792Z,83
2023-07-02T00:16:41.073Z,84
2023-07-02T00:18:49.628Z,84
2023-07-02T00:20:43.162Z,84
2023-07-02T00:22:43.051Z,84
2023-07-02T00:24:42.821Z,84
2023-07-02T00:26:52.116Z,83
2023-07-02T00:28:46.011Z,83
2023-07-02T00:30:45.917Z,84
2023-07-02T00:32:47.869Z,83
2023-07-02T00:36:43.286Z,84
2023-07-02T00:38:43.203Z,84
2023-07-02T00:40:52.478Z,84
2023-07-02T00:42:45.851Z,84
2023-07-02T00:44:45.753Z,84
2023-07-02T00:46:43.684Z,84
2023-07-02T00:48:48.903Z,84
2023-07-02T00:50:49.687Z,83
2023-07-02T00:52:43.300Z,83
2023-07-02T00:54:49.020Z,84
2023-07-02T00:56:48.817Z,84
2023-07-02T00:58:49.249Z,84
2023-07-02T01:00:43.078Z,84
2023-07-02T01:04:49.083Z,84
2023-07-02T01:06:43.140Z,83
2023-07-02T01:08:41.494Z,84
2023-07-02T01:10:49.299Z,84
2023-07-02T01:12:43.072Z,84
2023-07-02T01:14:45.859Z,83
2023-07-02T01:16:40.423Z,84
2023-07-02T01:18:42.646Z,84
2023-07-02T01:22:46.058Z,84
2023-07-02T01:26:43.686Z,85
2023-07-02T01:28:43.013Z,85
2023-07-02T01:32:47.619Z,87
2023-07-02T01:34:42.867Z,87
2023-07-02T01:36:43.034Z,87
2023-07-02T01:38:43.923Z,87
2023-07-02T01:40:43.227Z,87
2023-07-02T01:44:45.693Z,86
2023-07-02T01:46:46.748Z,87
2023-07-02T01:48:43.132Z,87
2023-07-02T01:50:49.363Z,85
2023-07-02T01:52:43.045Z,86
2023-07-02T01:54:43.095Z,86
2023-07-02T01:56:43.589Z,86
2023-07-02T01:58:49.280Z,87
2023-07-02T02:00:43.574Z,87
2023-07-02T02:02:49.768Z,86
2023-07-02T02:04:49.460Z,87
2023-07-02T02:06:46.448Z,86
2023-07-02T02:08:42.954Z,87
2023-07-02T02:10:42.696Z,86
2023-07-02T02:12:43.264Z,86
2023-07-02T02:14:43.316Z,86
2023-07-02T02:16:46.408Z,86
2023-07-02T02:18:43.164Z,86
2023-07-02T02:20:43.246Z,86
2023-07-02T02:22:42.691Z,86
2023-07-02T02:24:46.010Z,86
2023-07-02T02:26:43.442Z,86
2023-07-02T02:28:42.497Z,85
2023-07-02T02:30:42.803Z,85
2023-07-02T02:32:42.965Z,85
2023-07-02T02:34:42.632Z,85
2023-07-02T02:36:43.757Z,85
2023-07-02T02:40:42.022Z,85
2023-07-02T02:42:49.636Z,85
2023-07-02T02:44:43.607Z,84
2023-07-02T02:46:44.111Z,85
2023-07-02T02:50:49.307Z,84
2023-07-02T02:52:42.878Z,85
2023-07-02T02:54:42.775Z,85
2023-07-02T02:56:43.562Z,86
2023-07-02T02:58:43.155Z,85
2023-07-02T03:02:43.714Z,84
2023-07-02T03:04:49.544Z,85
2023-07-02T03:06:42.802Z,85
2023-07-02T03:08:46.255Z,86
2023-07-02T03:10:42.475Z,86
2023-07-02T03:14:43.317Z,85
2023-07-02T03:16:46.207Z,86
2023-07-02T03:18:42.860Z,85
2023-07-02T03:20:43.202Z,85
2023-07-02T03:22:46.975Z,86
2023-07-02T03:24:43.060Z,85
2023-07-02T03:26:43.607Z,85
2023-07-02T03:28:49.269Z,85
2023-07-02T03:30:49.497Z,85
2023-07-02T03:32:43.620Z,86
2023-07-02T03:34:41.644Z,84
2023-07-02T03:36:49.576Z,85
2023-07-02T03:38:43.333Z,85
2023-07-02T03:40:49.536Z,85
2023-07-02T03:42:46.036Z,85
2023-07-02T03:44:45.988Z,85
2023-07-02T03:46:49.301Z,85
2023-07-02T03:48:46.220Z,85
2023-07-02T03:50:49.357Z,86
2023-07-02T03:52:46.180Z,86
2023-07-02T03:54:42.830Z,85
2023-07-02T03:56:44.018Z,84
2023-07-02T03:58:49.280Z,85
2023-07-02T04:00:42.435Z,84
2023-07-02T04:02:45.090Z,84
2023-07-02T04:04:41.669Z,84
2023-07-02T04:06:46.144Z,84
2023-07-02T04:08:49.094Z,85
2023-07-02T04:10:44.325Z,85
2023-07-02T04:12:43.062Z,85
2023-07-02T04:14:43.223Z,85
2023-07-02T04:16:49.403Z,85
2023-07-02T04:20:42.010Z,85
2023-07-02T04:24:46.128Z,85
2023-07-02T04:26:58.974Z,86
2023-07-02T04:32:43.414Z,84
2023-07-02T04:34:43.227Z,83
2023-07-02T04:36:43.218Z,84
2023-07-02T04:38:46.587Z,83
2023-07-02T04:40:44.800Z,83
2023-07-02T04:42:46.637Z,83
2023-07-02T04:44:46.383Z,83
2023-07-02T04:46:49.431Z,83
2023-07-02T04:50:43.697Z,83
2023-07-02T04:52:44.986Z,83
2023-07-02T04:54:46.884Z,84
2023-07-02T04:56:43.049Z,83
2023-07-02T04:58:46.780Z,83
2023-07-02T05:00:42.469Z,84
2023-07-02T05:02:43.464Z,84
2023-07-02T05:04:43.676Z,84
2023-07-02T05:06:46.391Z,83
2023-07-02T05:08:43.162Z,84
2023-07-02T05:10:44.897Z,83
2023-07-02T05:12:43.133Z,83
2023-07-02T05:14:43.537Z,83
2023-07-02T05:16:46.251Z,84
2023-07-02T05:18:43.521Z,84
2023-07-02T05:20:43.615Z,84
2023-07-02T05:22:50.277Z,84
2023-07-02T05:24:43.591Z,84
2023-07-02T05:26:43.849Z,84
2023-07-02T05:28:46.721Z,84
2023-07-02T05:30:43.412Z,84
2023-07-02T05:32:47.914Z,83
2023-07-02T05:34:43.378Z,84
2023-07-02T05:36:43.729Z,83
2023-07-02T05:38:43.635Z,84
2023-07-02T05:40:50.025Z,84
2023-07-02T05:42:43.418Z,84
2023-07-02T05:44:43.270Z,83
2023-07-02T05:46:45.454Z,83
2023-07-02T05:48:44.272Z,83
2023-07-02T05:50:50.281Z,83
2023-07-02T05:52:43.516Z,83
2023-07-02T05:54:48.924Z,84
2023-07-02T05:56:43.670Z,83
2023-07-02T05:58:48.381Z,83
2023-07-02T06:00:47.025Z,84
2023-07-02T06:04:43.865Z,85
2023-07-02T06:06:44.407Z,86
2023-07-02T06:08:43.141Z,85
2023-07-02T06:10:47.022Z,86
2023-07-02T06:12:43.662Z,86
2023-07-02T06:14:44.563Z,86
2023-07-02T06:16:42.799Z,86
2023-07-02T06:18:43.905Z,86
2023-07-02T06:22:46.912Z,86
2023-07-02T06:24:46.845Z,87
2023-07-02T06:26:43.550Z,87
2023-07-02T06:28:48.663Z,88
2023-07-02T06:30:50.687Z,88
2023-07-02T06:32:44.740Z,88
2023-07-02T06:34:45.881Z,88
2023-07-02T06:36:47.012Z,88
2023-07-02T06:38:46.846Z,89
2023-07-02T06:40:53.308Z,89
2023-07-02T06:42:46.826Z,88
2023-07-02T06:44:42.780Z,88
2023-07-02T06:46:47.635Z,88
2023-07-02T06:48:50.669Z,88
2023-07-02T06:50:48.007Z,89
2023-07-02T06:52:44.728Z,88
2023-07-02T06:54:44.626Z,89
2023-07-02T06:56:47.648Z,89
2023-07-02T06:58:44.523Z,89
2023-07-02T07:00:49.724Z,88
2023-07-02T07:02:47.622Z,88
2023-07-02T07:04:47.562Z,88
2023-07-02T07:06:44.639Z,87
2023-07-02T07:08:47.046Z,87
2023-07-02T07:10:44.477Z,87
2023-07-02T07:12:48.935Z,87
2023-07-02T07:14:42.367Z,87
2023-07-02T07:16:47.663Z,87
2023-07-02T07:18:47.576Z,86
2023-07-02T07:20:44.380Z,86
2023-07-02T07:22:48.699Z,86
2023-07-02T07:24:47.701Z,85
2023-07-02T07:26:50.672Z,84
2023-07-02T07:28:47.576Z,83
2023-07-02T07:30:44.582Z,83
2023-07-02T07:32:48.653Z,82
2023-07-02T07:34:50.828Z,81
2023-07-02T07:36:44.378Z,78
2023-07-02T07:38:49.515Z,78
2023-07-02T07:40:44.053Z,77
2023-07-02T07:42:48.243Z,77
2023-07-02T07:44:47.179Z,76
2023-07-02T07:46:44.065Z,78
2023-07-02T07:48:46.512Z,75
2023-07-02T07:50:47.726Z,74
2023-07-02T07:52:44.385Z,76
2023-07-02T07:56:43.145Z,75
2023-07-02T07:58:44.128Z,77
2023-07-02T08:00:45.148Z,76
2023-07-02T08:02:47.115Z,77
2023-07-02T08:04:43.878Z,80
2023-07-02T08:06:48.970Z,79
2023-07-02T08:08:48.755Z,79
2023-07-02T08:10:44.096Z,79
2023-07-02T08:12:42.843Z,78
2023-07-02T08:14:44.338Z,79
2023-07-02T08:16:44.594Z,77
2023-07-02T08:18:43.988Z,77
2023-07-02T08:20:43.131Z,79
2023-07-02T08:22:47.339Z,79
2023-07-02T08:26:46.854Z,78
2023-07-02T08:28:43.796Z,78
2023-07-02T08:30:43.029Z,77
2023-07-02T08:32:51.854Z,77
2023-07-02T08:36:44.142Z,76
2023-07-02T08:38:44.613Z,78
2023-07-02T08:40:47.523Z,78
2023-07-02T08:44:45.635Z,77
2023-07-02T08:46:44.036Z,77
2023-07-02T08:48:48.636Z,75
2023-07-02T08:50:44.079Z,75
2023-07-02T08:52:42.135Z,77
2023-07-02T08:54:46.162Z,77
2023-07-02T08:56:42.869Z,75
2023-07-02T08:58:47.485Z,74
2023-07-02T09:00:41.723Z,72
2023-07-02T09:02:43.207Z,69
2023-07-02T09:04:41.781Z,70
2023-07-02T09:06:47.660Z,71
2023-07-02T09:08:44.589Z,72
2023-07-02T09:10:42.704Z,72
2023-07-02T09:12:51.108Z,70
2023-07-02T09:14:44.604Z,71
2023-07-02T09:16:46.213Z,68
2023-07-02T09:18:43.457Z,68
2023-07-02T09:20:48.239Z,67
2023-07-02T09:22:43.168Z,67
2023-07-02T09:24:45.362Z,65
2023-07-02T09:26:43.705Z,65
2023-07-02T09:28:48.778Z,65
2023-07-02T09:30:43.644Z,65
2023-07-02T09:32:46.297Z,65
2023-07-02T09:34:42.862Z,66
2023-07-02T09:36:43.682Z,66
2023-07-02T09:38:44.733Z,64
2023-07-02T09:40:46.346Z,67
2023-07-02T09:42:43.878Z,64
2023-07-02T09:44:44.348Z,64
2023-07-02T09:46:44.651Z,64
2023-07-02T09:48:46.598Z,63
2023-07-02T09:50:48.287Z,64
2023-07-02T09:52:45.386Z,63
2023-07-02T09:54:46.092Z,64
2023-07-02T09:56:44.391Z,62
2023-07-02T09:58:46.047Z,61
2023-07-02T10:00:44.714Z,63
2023-07-02T10:04:44.897Z,61
2023-07-02T10:06:43.805Z,62
2023-07-02T10:08:46.035Z,62
2023-07-02T10:10:44.090Z,61
2023-07-02T10:12:44.096Z,61
2023-07-02T10:14:44.675Z,61
2023-07-02T10:16:47.776Z,60
2023-07-02T10:18:43.811Z,62
2023-07-02T10:20:50.130Z,60
2023-07-02T10:22:45.063Z,62
2023-07-02T10:24:46.337Z,61
2023-07-02T10:26:45.196Z,61
2023-07-02T10:28:42.768Z,61
2023-07-02T10:30:44.678Z,60
2023-07-02T10:32:43.622Z,60
2023-07-02T10:34:45.084Z,60
2023-07-02T10:36:43.814Z,60
2023-07-02T10:38:45.350Z,60
2023-07-02T10:40:46.543Z,60
2023-07-02T10:44:48.461Z,61
2023-07-02T10:46:46.528Z,59
2023-07-02T10:48:47.493Z,61
2023-07-02T10:50:44.596Z,59
2023-07-02T10:52:41.753Z,60
2023-07-02T10:54:43.003Z,58
2023-07-02T10:56:44.994Z,60
2023-07-02T10:58:49.552Z,59
2023-07-02T11:00:43.900Z,58
2023-07-02T11:02:44.900Z,59
2023-07-02T11:04:49.118Z,59
2023-07-02T11:06:46.365Z,60
2023-07-02T11:08:44.635Z,56
2023-07-02T11:10:43.622Z,60
2023-07-02T11:12:45.082Z,58
2023-07-02T11:14:46.610Z,57
2023-07-02T11:16:49.584Z,57
2023-07-02T11:18:43.751Z,59
2023-07-02T11:20:46.181Z,57
2023-07-02T11:22:44.644Z,57
2023-07-02T11:24:44.255Z,56
2023-07-02T11:26:44.774Z,57
2023-07-02T11:28:48.607Z,58
2023-07-02T11:30:47.815Z,57
2023-07-02T11:32:44.961Z,57
2023-07-02T11:34:41.393Z,56
2023-07-02T11:36:45.391Z,55
2023-07-02T11:38:48.368Z,58
2023-07-02T11:40:44.717Z,58
2023-07-02T11:42:45.443Z,58
2023-07-02T11:44:44.326Z,58
2023-07-02T11:46:42.928Z,57
2023-07-02T11:48:46.474Z,56
2023-07-02T11:50:44.551Z,57
2023-07-02T11:52:46.592Z,57
2023-07-02T11:56:44.187Z,57
2023-07-02T11:58:41.959Z,56
2023-07-02T12:00:43.198Z,57
2023-07-02T12:02:46.155Z,56
2023-07-02T12:04:47.888Z,55
2023-07-02T12:06:43.866Z,56
2023-07-02T12:08:51.463Z,56
2023-07-02T12:10:43.441Z,54
2023-07-02T12:12:49.338Z,55
2023-07-02T12:14:43.999Z,55
2023-07-02T12:16:46.084Z,57
2023-07-02T12:18:48.079Z,57
2023-07-02T12:20:45.478Z,56
2023-07-02T12:22:49.000Z,56
2023-07-02T12:24:44.889Z,55
2023-07-02T12:26:44.028Z,56
2023-07-02T12:28:42.382Z,54
2023-07-02T12:30:44.341Z,54
2023-07-02T12:34:45.239Z,57
2023-07-02T12:38:48.127Z,59
2023-07-02T12:40:43.467Z,58
2023-07-02T12:44:46.958Z,55
2023-07-02T12:46:45.412Z,54
2023-07-02T12:48:45.138Z,54
2023-07-02T12:50:49.104Z,54
2023-07-02T12:52:44.934Z,55
2023-07-02T12:56:45.375Z,55
2023-07-02T12:58:45.117Z,55
2023-07-02T13:00:44.094Z,54
2023-07-02T13:02:58.584Z,54
2023-07-02T13:04:48.882Z,55
2023-07-02T13:08:43.302Z,55
2023-07-02T13:10:43.315Z,56
2023-07-02T13:12:43.765Z,54
2023-07-02T13:16:44.896Z,55
2023-07-02T13:18:43.248Z,55
2023-07-02T13:20:44.648Z,56
2023-07-02T13:22:47.034Z,55
2023-07-02T13:26:46.175Z,55
2023-07-02T13:28:42.815Z,55
2023-07-02T13:30:45.383Z,54
2023-07-02T13:34:43.383Z,55
2023-07-02T13:36:45.403Z,54
2023-07-02T13:38:43.930Z,54
2023-07-02T13:40:48.663Z,56
2023-07-02T13:42:45.644Z,55
2023-07-02T13:44:51.841Z,54
2023-07-02T13:46:47.329Z,56
2023-07-02T13:48:47.001Z,57
2023-07-02T13:50:45.373Z,54
2023-07-02T13:52:46.490Z,55
2023-07-02T13:54:47.576Z,56
2023-07-02T13:58:44.497Z,54
2023-07-02T14:00:49.138Z,55
2023-07-02T14:02:45.499Z,54
2023-07-02T14:04:48.318Z,55
2023-07-02T14:06:50.168Z,56
2023-07-02T14:08:43.833Z,56
2023-07-02T14:10:45.370Z,54
2023-07-02T14:12:43.742Z,54
2023-07-02T14:14:46.737Z,54
2023-07-02T14:16:48.569Z,55
2023-07-02T14:18:44.125Z,54
2023-07-02T14:20:46.182Z,55
2023-07-02T14:22:47.782Z,54
2023-07-02T14:26:47.014Z,54
2023-07-02T14:28:42.988Z,54
2023-07-02T14:30:45.390Z,54
2023-07-02T14:32:44.104Z,54
2023-07-02T14:34:46.996Z,56
2023-07-02T14:36:45.505Z,56
2023-07-02T14:40:44.437Z,53
2023-07-02T14:42:43.653Z,55
2023-07-02T14:44:46.289Z,53
2023-07-02T14:46:44.403Z,54
2023-07-02T14:48:44.534Z,53
2023-07-02T14:50:48.901Z,53
2023-07-02T14:52:45.619Z,52
2023-07-02T14:54:46.468Z,53
2023-07-02T14:56:46.086Z,53
2023-07-02T14:58:45.550Z,52
2023-07-02T15:00:44.958Z,54
2023-07-02T15:04:46.430Z,54
2023-07-02T15:06:48.556Z,54
2023-07-02T15:08:45.832Z,54
2023-07-02T15:10:43.415Z,55
2023-07-02T15:12:45.388Z,53
2023-07-02T15:14:43.793Z,53
2023-07-02T15:16:45.872Z,53
2023-07-02T15:18:45.446Z,55
2023-07-02T15:20:45.430Z,53
2023-07-02T15:22:43.243Z,52
2023-07-02T15:24:48.582Z,54
2023-07-02T15:26:45.690Z,53
2023-07-02T15:28:52.393Z,56
2023-07-02T15:32:46.079Z,52
2023-07-02T15:34:43.901Z,54
2023-07-02T15:36:45.588Z,52
2023-07-02T15:38:44.020Z,51
2023-07-02T15:40:45.585Z,52
2023-07-02T15:42:45.900Z,52
2023-07-02T15:44:45.446Z,51
2023-07-02T15:46:48.630Z,55
2023-07-02T15:48:45.523Z,52
2023-07-02T15:50:52.998Z,52
2023-07-02T15:52:47.182Z,51
2023-07-02T15:54:52.106Z,49
2023-07-02T15:56:45.480Z,51
2023-07-02T15:58:46.622Z,53
2023-07-02T16:02:44.633Z,52
2023-07-02T16:04:42.783Z,51
2023-07-02T16:10:43.290Z,50
2023-07-02T16:12:46.152Z,53
2023-07-02T16:16:45.905Z,51
2023-07-02T16:20:45.233Z,48
2023-07-02T16:22:44.779Z,49
2023-07-02T16:24:46.251Z,50
2023-07-02T16:28:43.547Z,51
2023-07-02T16:34:43.411Z,52
2023-07-02T16:36:45.521Z,53
2023-07-02T16:38:51.446Z,50
2023-07-02T16:40:45.880Z,52
2023-07-02T16:42:49.232Z,48
2023-07-02T16:44:50.080Z,51
2023-07-02T16:46:46.391Z,50
2023-07-02T16:48:45.982Z,50
2023-07-02T16:50:44.241Z,49
2023-07-02T16:52:43.105Z,49
2023-07-02T16:58:43.557Z,53
2023-07-02T17:00:48.809Z,53
2023-07-02T17:02:45.854Z,50
2023-07-02T17:04:42.146Z,49
2023-07-02T17:06:47.891Z,48
2023-07-02T17:08:46.194Z,48
2023-07-02T17:10:43.116Z,48
2023-07-02T17:12:49.071Z,50
2023-07-02T17:14:45.867Z,51
2023-07-02T17:16:43.167Z,50
2023-07-02T17:18:49.477Z,49
2023-07-02T17:20:46.251Z,50
2023-07-02T17:22:51.284Z,51
2023-07-02T17:24:43.817Z,50
2023-07-02T17:26:43.547Z,50
2023-07-02T17:28:45.848Z,49
2023-07-02T17:30:44.071Z,48
2023-07-02T17:32:46.175Z,50
2023-07-02T17:34:41.085Z,50
2023-07-02T17:36:48.047Z,51
2023-07-02T17:38:43.548Z,49
2023-07-02T17:40:41.259Z,51
2023-07-02T17:42:46.137Z,49
2023-07-02T17:44:44.098Z,48
2023-07-02T17:46:42.028Z,49
2023-07-02T17:48:43.970Z,50
2023-07-02T17:50:43.708Z,53
2023-07-02T17:52:43.531Z,51
2023-07-02T17:54:46.646Z,49
2023-07-02T17:56:43.663Z,51
2023-07-02T17:58:43.431Z,50
2023-07-02T18:00:43.983Z,52
2023-07-02T18:04:49.739Z,52
2023-07-02T18:06:45.287Z,53
2023-07-02T18:08:43.098Z,52
2023-07-02T18:10:46.361Z,51
2023-07-02T18:14:50.019Z,53
2023-07-02T18:16:41.826Z,53
2023-07-02T18:18:44.218Z,52
2023-07-02T18:22:41.682Z,52
2023-07-02T18:28:43.440Z,52
2023-07-02T18:30:43.775Z,53
2023-07-02T18:32:43.613Z,53
2023-07-02T18:34:47.305Z,54
2023-07-02T18:36:43.793Z,54
2023-07-02T18:38:43.689Z,54
2023-07-02T18:40:43.074Z,53
2023-07-02T18:42:49.208Z,54
2023-07-02T18:44:43.325Z,54
2023-07-02T18:46:43.085Z,55
2023-07-02T18:48:47.212Z,55
2023-07-02T18:50:43.358Z,56
2023-07-02T18:52:46.496Z,55
2023-07-02T18:54:43.449Z,56
2023-07-02T18:56:46.380Z,56
2023-07-02T19:00:46.542Z,56
2023-07-02T19:02:49.475Z,56
2023-07-02T19:04:46.399Z,57
2023-07-02T19:06:43.815Z,57
2023-07-02T19:10:43.094Z,59
2023-07-02T19:12:44.658Z,59
2023-07-02T19:16:52.467Z,57
2023-07-02T19:20:44.954Z,57
2023-07-02T19:22:41.867Z,57
2023-07-02T19:24:43.046Z,57
2023-07-02T19:26:46.252Z,57
2023-07-02T19:28:46.729Z,57
2023-07-02T19:30:43.871Z,57
2023-07-02T19:34:43.049Z,58
2023-07-02T19:36:43.829Z,58
2023-07-02T19:38:46.436Z,59
2023-07-02T19:40:46.975Z,58
2023-07-02T19:42:43.700Z,57
2023-07-02T19:44:46.173Z,58
2023-07-02T19:46:49.361Z,58
2023-07-02T19:48:46.103Z,58
2023-07-02T19:50:43.761Z,58
2023-07-02T19:52:41.703Z,58
2023-07-02T19:58:43.217Z,58
2023-07-02T20:00:49.722Z,59
2023-07-02T20:02:43.795Z,58
2023-07-02T20:04:43.318Z,58
2023-07-02T20:06:46.298Z,59
2023-07-02T20:12:46.078Z,60
2023-07-02T20:14:47.052Z,61
2023-07-02T20:16:43.567Z,61
2023-07-02T20:18:46.407Z,60
2023-07-02T20:20:53.528Z,60
2023-07-02T20:22:42.914Z,59
2023-07-02T20:26:46.207Z,60
2023-07-02T20:28:42.585Z,60
2023-07-02T20:32:45.974Z,60
2023-07-02T20:34:43.552Z,60
2023-07-02T20:36:43.600Z,60
2023-07-02T20:38:44.115Z,59
2023-07-02T20:40:49.023Z,60
2023-07-02T20:42:43.754Z,60
2023-07-02T20:44:43.905Z,60
2023-07-02T20:46:43.252Z,61
2023-07-02T20:50:46.173Z,60
2023-07-02T20:52:41.838Z,61
2023-07-02T20:54:44.002Z,61
2023-07-02T20:56:43.807Z,63
2023-07-02T21:00:57.653Z,63
2023-07-02T21:02:46.275Z,61
2023-07-02T21:04:43.411Z,62
2023-07-02T21:06:46.128Z,63
2023-07-02T21:08:43.728Z,63
2023-07-02T21:10:49.709Z,64
2023-07-02T21:12:43.550Z,63
2023-07-02T21:14:43.733Z,64
2023-07-02T21:16:43.551Z,64
2023-07-02T21:18:43.725Z,65
2023-07-02T21:20:52.885Z,65
2023-07-02T21:22:46.283Z,65
2023-07-02T21:24:44.189Z,64
2023-07-02T21:28:45.027Z,64
2023-07-02T21:30:44.050Z,65
2023-07-02T21:32:43.994Z,64
2023-07-02T21:34:47.850Z,64
2023-07-02T21:36:43.734Z,65
2023-07-02T21:38:44.615Z,64
2023-07-02T21:40:42.061Z,65
2023-07-02T21:42:46.651Z,65
2023-07-02T21:44:44.051Z,66
2023-07-02T21:46:52.636Z,66
2023-07-02T21:50:46.131Z,67
2023-07-02T21:52:42.169Z,66
2023-07-02T21:54:46.530Z,66
2023-07-02T21:56:43.922Z,66
2023-07-02T22:00:41.569Z,68
2023-07-02T22:04:49.220Z,68
2023-07-02T22:08:43.914Z,68
2023-07-02T22:10:46.082Z,69
2023-07-02T22:12:46.699Z,68
2023-07-02T22:14:41.550Z,69
2023-07-02T22:16:47.055Z,70
2023-07-02T22:18:46.494Z,70
2023-07-02T22:20:43.630Z,68
2023-07-02T22:22:51.420Z,69
2023-07-02T22:24:47.246Z,69
2023-07-02T22:26:44.230Z,70
2023-07-02T22:28:43.477Z,71
2023-07-02T22:30:45.857Z,70
2023-07-02T22:34:46.766Z,71
2023-07-02T22:38:43.864Z,71
2023-07-02T22:40:46.583Z,71
2023-07-02T22:42:46.206Z,71
2023-07-02T22:44:43.801Z,70
2023-07-02T22:46:43.834Z,71
2023-07-02T22:48:47.785Z,71
2023-07-02T22:50:43.552Z,71
2023-07-02T22:52:44.954Z,71
2023-07-02T22:56:47.802Z,71
2023-07-02T22:58:46.348Z,71
2023-07-02T23:02:52.815Z,71
2023-07-02T23:04:43.670Z,71
2023-07-02T23:06:43.796Z,71
2023-07-02T23:08:48.990Z,71
2023-07-02T23:10:45.057Z,71
2023-07-02T23:14:48.037Z,70
2023-07-02T23:16:43.173Z,70
2023-07-02T23:18:43.269Z,70
2023-07-02T23:20:46.174Z,71
2023-07-02T23:24:49.133Z,71
2023-07-02T23:26:46.264Z,71
2023-07-02T23:28:43.462Z,70
2023-07-02T23:30:46.453Z,71
2023-07-02T23:34:46.819Z,70
2023-07-02T23:36:43.934Z,71
2023-07-02T23:38:43.407Z,72
2023-07-02T23:42:46.552Z,70
2023-07-02T23:44:43.614Z,69
2023-07-02T23:46:43.464Z,70
2023-07-02T23:50:44.461Z,69
2023-07-02T23:52:47.903Z,71
2023-07-02T23:54:50.043Z,71
2023-07-02T23:56:43.700Z,72
2023-07-02T23:58:43.128Z,71
